sensor_id;sensor_type;location;lat;lon;timestamp;P1;durP1;ratioP1;P2;durP2;ratioP2
2338;SDS011;1180;51.438;6.978;2022-11-15T00:00:50;9.93;;;6.90;;
2338;SDS011;1180;51.438;6.978;2022-11-15T00:03:17;9.17;;;6.73;;
2338;SDS011;1180;51.438;6.978;2022-11-15T00:05:45;8.00;;;6.17;;
2338;SDS011;1180;51.438;6.978;2022-11-15T00:08:10;8.50;;;6.47;;
2338;SDS011;1180;51.438;6.978;2022-11-15T00:10:36;8.07;;;6.30;;
2338;SDS011;1180;51.438;6.978;2022-11-15T00:13:06;6.80;;;5.90;;
2338;SDS011;1180;51.438;6.978;2022-11-15T00:15:35;10.90;;;7.00;;
2338;SDS011;1180;51.438;6.978;2022-11-15T00:18:05;7.23;;;6.53;;
2338;SDS011;1180;51.438;6.978;2022-11-15T00:20:33;6.93;;;6.23;;
2338;SDS011;1180;51.438;6.978;2022-11-15T00:22:58;6.23;;;5.67;;
2338;SDS011;1180;51.438;6.978;2022-11-15T00:25:24;7.80;;;6.20;;
2338;SDS011;1180;51.438;6.978;2022-11-15T00:27:49;7.60;;;5.90;;
2338;SDS011;1180;51.438;6.978;2022-11-15T00:30:16;7.43;;;6.00;;
2338;SDS011;1180;51.438;6.978;2022-11-15T00:32:42;6.50;;;5.80;;
2338;SDS011;1180;51.438;6.978;2022-11-15T00:35:07;10.03;;;7.23;;
2338;SDS011;1180;51.438;6.978;2022-11-15T00:37:33;7.47;;;6.23;;
2338;SDS011;1180;51.438;6.978;2022-11-15T00:39:58;7.37;;;6.67;;
2338;SDS011;1180;51.438;6.978;2022-11-15T00:42:23;8.97;;;6.50;;
2338;SDS011;1180;51.438;6.978;2022-11-15T00:44:49;9.23;;;6.60;;
2338;SDS011;1180;51.438;6.978;2022-11-15T00:47:14;9.57;;;6.57;;
2338;SDS011;1180;51.438;6.978;2022-11-15T00:49:39;6.63;;;6.03;;
2338;SDS011;1180;51.438;6.978;2022-11-15T00:52:05;8.50;;;6.23;;
2338;SDS011;1180;51.438;6.978;2022-11-15T00:54:31;7.20;;;6.30;;
2338;SDS011;1180;51.438;6.978;2022-11-15T00:56:56;6.93;;;6.23;;
2338;SDS011;1180;51.438;6.978;2022-11-15T00:59:21;10.10;;;6.70;;
2338;SDS011;1180;51.438;6.978;2022-11-15T01:01:47;7.63;;;6.70;;
2338;SDS011;1180;51.438;6.978;2022-11-15T01:04:12;6.93;;;6.10;;
2338;SDS011;1180;51.438;6.978;2022-11-15T01:06:38;9.40;;;6.43;;
2338;SDS011;1180;51.438;6.978;2022-11-15T01:09:04;7.97;;;6.60;;
2338;SDS011;1180;51.438;6.978;2022-11-15T01:11:29;7.93;;;6.13;;
2338;SDS011;1180;51.438;6.978;2022-11-15T01:13:54;9.50;;;6.50;;
2338;SDS011;1180;51.438;6.978;2022-11-15T01:16:20;7.50;;;5.90;;
2338;SDS011;1180;51.438;6.978;2022-11-15T01:18:45;7.73;;;6.50;;
2338;SDS011;1180;51.438;6.978;2022-11-15T01:21:11;7.67;;;6.40;;
2338;SDS011;1180;51.438;6.978;2022-11-15T01:23:42;7.33;;;6.17;;
2338;SDS011;1180;51.438;6.978;2022-11-15T01:26:10;8.07;;;6.50;;
2338;SDS011;1180;51.438;6.978;2022-11-15T01:28:37;8.10;;;5.90;;
2338;SDS011;1180;51.438;6.978;2022-11-15T01:31:05;8.70;;;6.37;;
2338;SDS011;1180;51.438;6.978;2022-11-15T01:33:34;5.97;;;5.47;;
2338;SDS011;1180;51.438;6.978;2022-11-15T01:36:04;5.87;;;5.37;;
2338;SDS011;1180;51.438;6.978;2022-11-15T01:38:31;6.30;;;5.80;;
2338;SDS011;1180;51.438;6.978;2022-11-15T01:40:57;6.97;;;6.07;;
2338;SDS011;1180;51.438;6.978;2022-11-15T01:43:23;6.33;;;5.57;;
2338;SDS011;1180;51.438;6.978;2022-11-15T01:46:36;6.30;;;5.70;;
2338;SDS011;1180;51.438;6.978;2022-11-15T01:49:00;7.67;;;5.17;;
2338;SDS011;1180;51.438;6.978;2022-11-15T01:51:30;5.97;;;5.30;;
2338;SDS011;1180;51.438;6.978;2022-11-15T01:53:59;6.67;;;6.07;;
2338;SDS011;1180;51.438;6.978;2022-11-15T01:56:36;6.73;;;5.70;;
2338;SDS011;1180;51.438;6.978;2022-11-15T01:59:07;6.60;;;5.73;;
2338;SDS011;1180;51.438;6.978;2022-11-15T02:01:33;6.50;;;5.40;;
2338;SDS011;1180;51.438;6.978;2022-11-15T02:04:10;6.17;;;5.60;;
2338;SDS011;1180;51.438;6.978;2022-11-15T02:06:36;6.20;;;5.50;;
2338;SDS011;1180;51.438;6.978;2022-11-15T02:09:03;6.90;;;5.70;;
2338;SDS011;1180;51.438;6.978;2022-11-15T02:11:28;6.97;;;5.97;;
2338;SDS011;1180;51.438;6.978;2022-11-15T02:13:54;8.43;;;6.27;;
2338;SDS011;1180;51.438;6.978;2022-11-15T02:18:55;6.20;;;5.33;;
2338;SDS011;1180;51.438;6.978;2022-11-15T02:32:35;7.20;;;5.73;;
2338;SDS011;1180;51.438;6.978;2022-11-15T02:35:14;9.00;;;5.83;;
2338;SDS011;1180;51.438;6.978;2022-11-15T02:37:51;10.80;;;6.20;;
2338;SDS011;1180;51.438;6.978;2022-11-15T02:40:39;6.40;;;5.50;;
2338;SDS011;1180;51.438;6.978;2022-11-15T02:43:21;6.80;;;6.10;;
2338;SDS011;1180;51.438;6.978;2022-11-15T02:49:12;10.07;;;6.20;;
2338;SDS011;1180;51.438;6.978;2022-11-15T02:51:39;7.80;;;6.47;;
2338;SDS011;1180;51.438;6.978;2022-11-15T02:54:10;7.67;;;6.87;;
2338;SDS011;1180;51.438;6.978;2022-11-15T02:56:39;7.53;;;6.37;;
2338;SDS011;1180;51.438;6.978;2022-11-15T03:13:38;8.13;;;6.47;;
2338;SDS011;1180;51.438;6.978;2022-11-15T03:16:09;9.50;;;6.23;;
2338;SDS011;1180;51.438;6.978;2022-11-15T03:18:43;8.83;;;6.13;;
2338;SDS011;1180;51.438;6.978;2022-11-15T03:21:13;7.57;;;5.97;;
2338;SDS011;1180;51.438;6.978;2022-11-15T03:23:41;7.10;;;5.67;;
2338;SDS011;1180;51.438;6.978;2022-11-15T03:26:08;8.17;;;5.67;;
2338;SDS011;1180;51.438;6.978;2022-11-15T03:28:38;7.37;;;6.70;;
2338;SDS011;1180;51.438;6.978;2022-11-15T03:31:09;8.57;;;6.00;;
2338;SDS011;1180;51.438;6.978;2022-11-15T03:33:56;6.20;;;5.17;;
2338;SDS011;1180;51.438;6.978;2022-11-15T03:36:24;7.50;;;6.10;;
2338;SDS011;1180;51.438;6.978;2022-11-15T03:38:52;6.10;;;5.30;;
2338;SDS011;1180;51.438;6.978;2022-11-15T03:41:23;5.90;;;5.40;;
2338;SDS011;1180;51.438;6.978;2022-11-15T03:43:53;5.67;;;5.17;;
2338;SDS011;1180;51.438;6.978;2022-11-15T03:47:21;5.63;;;4.73;;
2338;SDS011;1180;51.438;6.978;2022-11-15T03:49:32;7.40;;;6.60;;
2338;SDS011;1180;51.438;6.978;2022-11-15T03:52:00;6.20;;;5.60;;
2338;SDS011;1180;51.438;6.978;2022-11-15T03:54:27;5.17;;;4.77;;
2338;SDS011;1180;51.438;6.978;2022-11-15T03:56:53;6.73;;;6.10;;
2338;SDS011;1180;51.438;6.978;2022-11-15T03:59:18;7.70;;;5.00;;
2338;SDS011;1180;51.438;6.978;2022-11-15T04:01:44;7.30;;;5.23;;
2338;SDS011;1180;51.438;6.978;2022-11-15T04:04:09;6.60;;;5.07;;
2338;SDS011;1180;51.438;6.978;2022-11-15T04:06:35;5.80;;;5.20;;
2338;SDS011;1180;51.438;6.978;2022-11-15T04:09:00;5.80;;;4.83;;
2338;SDS011;1180;51.438;6.978;2022-11-15T04:11:26;5.67;;;5.17;;
2338;SDS011;1180;51.438;6.978;2022-11-15T04:13:51;4.70;;;4.30;;
2338;SDS011;1180;51.438;6.978;2022-11-15T04:16:16;6.03;;;5.27;;
2338;SDS011;1180;51.438;6.978;2022-11-15T04:18:42;5.20;;;4.70;;
2338;SDS011;1180;51.438;6.978;2022-11-15T04:21:08;5.50;;;5.00;;
2338;SDS011;1180;51.438;6.978;2022-11-15T04:23:52;5.33;;;4.67;;
2338;SDS011;1180;51.438;6.978;2022-11-15T04:26:29;5.70;;;5.00;;
2338;SDS011;1180;51.438;6.978;2022-11-15T04:28:54;7.80;;;4.77;;
2338;SDS011;1180;51.438;6.978;2022-11-15T04:31:38;4.77;;;4.37;;
2338;SDS011;1180;51.438;6.978;2022-11-15T04:34:04;6.20;;;4.90;;
2338;SDS011;1180;51.438;6.978;2022-11-15T04:36:29;5.03;;;4.27;;
2338;SDS011;1180;51.438;6.978;2022-11-15T04:39:13;5.43;;;4.83;;
2338;SDS011;1180;51.438;6.978;2022-11-15T04:41:38;5.43;;;4.90;;
2338;SDS011;1180;51.438;6.978;2022-11-15T04:44:03;5.60;;;4.43;;
2338;SDS011;1180;51.438;6.978;2022-11-15T04:46:29;4.60;;;4.20;;
2338;SDS011;1180;51.438;6.978;2022-11-15T04:48:54;4.70;;;4.30;;
2338;SDS011;1180;51.438;6.978;2022-11-15T04:51:20;4.93;;;4.53;;
2338;SDS011;1180;51.438;6.978;2022-11-15T04:53:45;5.00;;;4.10;;
2338;SDS011;1180;51.438;6.978;2022-11-15T04:56:10;5.07;;;4.40;;
2338;SDS011;1180;51.438;6.978;2022-11-15T04:58:36;5.33;;;4.80;;
2338;SDS011;1180;51.438;6.978;2022-11-15T05:01:08;5.70;;;5.10;;
2338;SDS011;1180;51.438;6.978;2022-11-15T05:03:34;6.27;;;4.70;;
2338;SDS011;1180;51.438;6.978;2022-11-15T05:06:18;4.57;;;4.17;;
2338;SDS011;1180;51.438;6.978;2022-11-15T05:08:43;6.83;;;4.47;;
2338;SDS011;1180;51.438;6.978;2022-11-15T05:11:08;5.13;;;4.40;;
2338;SDS011;1180;51.438;6.978;2022-11-15T05:13:34;5.63;;;4.20;;
2338;SDS011;1180;51.438;6.978;2022-11-15T05:15:59;4.60;;;4.20;;
2338;SDS011;1180;51.438;6.978;2022-11-15T05:18:24;4.50;;;4.10;;
2338;SDS011;1180;51.438;6.978;2022-11-15T05:20:50;6.10;;;5.50;;
2338;SDS011;1180;51.438;6.978;2022-11-15T05:23:18;4.77;;;4.47;;
2338;SDS011;1180;51.438;6.978;2022-11-15T05:25:43;6.43;;;4.30;;
2338;SDS011;1180;51.438;6.978;2022-11-15T05:28:08;5.03;;;4.50;;
2338;SDS011;1180;51.438;6.978;2022-11-15T05:30:35;5.57;;;5.07;;
2338;SDS011;1180;51.438;6.978;2022-11-15T05:33:00;5.90;;;5.40;;
2338;SDS011;1180;51.438;6.978;2022-11-15T05:35:30;4.97;;;4.57;;
2338;SDS011;1180;51.438;6.978;2022-11-15T05:37:59;6.63;;;5.30;;
2338;SDS011;1180;51.438;6.978;2022-11-15T05:40:24;8.50;;;5.43;;
2338;SDS011;1180;51.438;6.978;2022-11-15T05:42:51;4.57;;;4.20;;
2338;SDS011;1180;51.438;6.978;2022-11-15T05:45:17;6.80;;;5.47;;
2338;SDS011;1180;51.438;6.978;2022-11-15T05:47:42;5.70;;;5.20;;
2338;SDS011;1180;51.438;6.978;2022-11-15T05:50:11;6.33;;;4.67;;
2338;SDS011;1180;51.438;6.978;2022-11-15T05:52:39;6.03;;;5.10;;
2338;SDS011;1180;51.438;6.978;2022-11-15T05:55:04;5.43;;;4.90;;
2338;SDS011;1180;51.438;6.978;2022-11-15T05:57:32;8.13;;;6.60;;
2338;SDS011;1180;51.438;6.978;2022-11-15T05:59:57;5.03;;;4.60;;
2338;SDS011;1180;51.438;6.978;2022-11-15T06:02:23;11.43;;;5.67;;
2338;SDS011;1180;51.438;6.978;2022-11-15T06:04:48;9.30;;;5.60;;
2338;SDS011;1180;51.438;6.978;2022-11-15T06:07:13;5.90;;;5.30;;
2338;SDS011;1180;51.438;6.978;2022-11-15T06:09:39;5.80;;;5.30;;
2338;SDS011;1180;51.438;6.978;2022-11-15T06:12:04;6.43;;;5.80;;
2338;SDS011;1180;51.438;6.978;2022-11-15T06:14:30;6.00;;;5.40;;
2338;SDS011;1180;51.438;6.978;2022-11-15T06:16:55;6.03;;;5.53;;
2338;SDS011;1180;51.438;6.978;2022-11-15T06:19:20;5.57;;;5.07;;
2338;SDS011;1180;51.438;6.978;2022-11-15T06:21:46;5.90;;;5.30;;
2338;SDS011;1180;51.438;6.978;2022-11-15T06:24:11;6.10;;;5.60;;
2338;SDS011;1180;51.438;6.978;2022-11-15T06:26:36;7.20;;;6.00;;
2338;SDS011;1180;51.438;6.978;2022-11-15T06:29:02;5.93;;;5.20;;
2338;SDS011;1180;51.438;6.978;2022-11-15T06:31:29;6.37;;;5.67;;
2338;SDS011;1180;51.438;6.978;2022-11-15T06:33:54;5.70;;;4.80;;
2338;SDS011;1180;51.438;6.978;2022-11-15T06:36:20;4.60;;;4.20;;
2338;SDS011;1180;51.438;6.978;2022-11-15T06:38:45;4.50;;;4.10;;
2338;SDS011;1180;51.438;6.978;2022-11-15T06:41:12;6.10;;;4.27;;
2338;SDS011;1180;51.438;6.978;2022-11-15T06:43:38;8.03;;;4.53;;
2338;SDS011;1180;51.438;6.978;2022-11-15T06:46:05;4.60;;;4.20;;
2338;SDS011;1180;51.438;6.978;2022-11-15T06:48:31;4.50;;;4.10;;
2338;SDS011;1180;51.438;6.978;2022-11-15T06:50:58;3.93;;;3.63;;
2338;SDS011;1180;51.438;6.978;2022-11-15T06:53:24;3.13;;;2.83;;
2338;SDS011;1180;51.438;6.978;2022-11-15T06:55:51;3.93;;;3.63;;
2338;SDS011;1180;51.438;6.978;2022-11-15T06:58:16;4.83;;;2.97;;
2338;SDS011;1180;51.438;6.978;2022-11-15T07:00:42;6.03;;;4.27;;
2338;SDS011;1180;51.438;6.978;2022-11-15T07:03:08;4.63;;;4.23;;
2338;SDS011;1180;51.438;6.978;2022-11-15T07:05:34;6.90;;;3.77;;
2338;SDS011;1180;51.438;6.978;2022-11-15T07:08:00;4.83;;;3.90;;
2338;SDS011;1180;51.438;6.978;2022-11-15T07:10:26;3.13;;;2.83;;
2338;SDS011;1180;51.438;6.978;2022-11-15T07:12:52;5.13;;;3.37;;
2338;SDS011;1180;51.438;6.978;2022-11-15T07:15:18;3.37;;;2.93;;
2338;SDS011;1180;51.438;6.978;2022-11-15T07:17:45;3.30;;;3.00;;
2338;SDS011;1180;51.438;6.978;2022-11-15T07:20:11;3.30;;;2.93;;
2338;SDS011;1180;51.438;6.978;2022-11-15T07:22:38;4.00;;;3.37;;
2338;SDS011;1180;51.438;6.978;2022-11-15T07:25:04;3.10;;;2.80;;
2338;SDS011;1180;51.438;6.978;2022-11-15T07:27:30;4.07;;;3.00;;
2338;SDS011;1180;51.438;6.978;2022-11-15T07:29:55;2.67;;;2.23;;
2338;SDS011;1180;51.438;6.978;2022-11-15T07:32:20;2.90;;;2.70;;
2338;SDS011;1180;51.438;6.978;2022-11-15T07:34:46;3.30;;;2.60;;
2338;SDS011;1180;51.438;6.978;2022-11-15T07:37:11;3.40;;;3.10;;
2338;SDS011;1180;51.438;6.978;2022-11-15T07:39:37;4.20;;;2.40;;
2338;SDS011;1180;51.438;6.978;2022-11-15T07:42:02;2.50;;;2.30;;
2338;SDS011;1180;51.438;6.978;2022-11-15T07:44:46;2.70;;;2.50;;
2338;SDS011;1180;51.438;6.978;2022-11-15T07:47:12;2.87;;;2.37;;
2338;SDS011;1180;51.438;6.978;2022-11-15T07:49:37;3.50;;;2.73;;
2338;SDS011;1180;51.438;6.978;2022-11-15T07:52:03;3.00;;;2.37;;
2338;SDS011;1180;51.438;6.978;2022-11-15T07:54:28;2.83;;;2.60;;
2338;SDS011;1180;51.438;6.978;2022-11-15T07:56:53;4.00;;;2.60;;
2338;SDS011;1180;51.438;6.978;2022-11-15T07:59:19;2.87;;;2.50;;
2338;SDS011;1180;51.438;6.978;2022-11-15T08:01:44;2.63;;;2.43;;
2338;SDS011;1180;51.438;6.978;2022-11-15T08:04:10;2.03;;;1.83;;
2338;SDS011;1180;51.438;6.978;2022-11-15T08:06:36;3.37;;;3.17;;
2338;SDS011;1180;51.438;6.978;2022-11-15T08:09:02;3.10;;;2.63;;
2338;SDS011;1180;51.438;6.978;2022-11-15T08:11:28;3.07;;;1.90;;
2338;SDS011;1180;51.438;6.978;2022-11-15T08:13:53;2.47;;;2.27;;
2338;SDS011;1180;51.438;6.978;2022-11-15T08:16:19;3.23;;;2.47;;
2338;SDS011;1180;51.438;6.978;2022-11-15T08:18:44;5.00;;;3.03;;
2338;SDS011;1180;51.438;6.978;2022-11-15T08:21:10;5.43;;;3.03;;
2338;SDS011;1180;51.438;6.978;2022-11-15T08:23:44;2.80;;;2.60;;
2338;SDS011;1180;51.438;6.978;2022-11-15T08:26:10;2.20;;;2.00;;
2338;SDS011;1180;51.438;6.978;2022-11-15T08:28:35;3.90;;;2.17;;
2338;SDS011;1180;51.438;6.978;2022-11-15T08:31:01;3.50;;;2.47;;
2338;SDS011;1180;51.438;6.978;2022-11-15T08:33:27;2.40;;;2.20;;
2338;SDS011;1180;51.438;6.978;2022-11-15T08:35:55;2.23;;;1.90;;
2338;SDS011;1180;51.438;6.978;2022-11-15T08:38:21;2.27;;;1.87;;
2338;SDS011;1180;51.438;6.978;2022-11-15T08:40:47;2.80;;;2.20;;
2338;SDS011;1180;51.438;6.978;2022-11-15T08:43:12;3.20;;;1.97;;
2338;SDS011;1180;51.438;6.978;2022-11-15T08:45:38;2.10;;;1.90;;
2338;SDS011;1180;51.438;6.978;2022-11-15T08:48:03;1.83;;;1.53;;
2338;SDS011;1180;51.438;6.978;2022-11-15T08:50:29;2.77;;;1.97;;
2338;SDS011;1180;51.438;6.978;2022-11-15T08:52:55;2.27;;;1.73;;
2338;SDS011;1180;51.438;6.978;2022-11-15T08:55:20;3.30;;;2.30;;
2338;SDS011;1180;51.438;6.978;2022-11-15T08:57:45;2.90;;;1.90;;
2338;SDS011;1180;51.438;6.978;2022-11-15T09:00:11;2.87;;;2.67;;
2338;SDS011;1180;51.438;6.978;2022-11-15T09:02:38;3.20;;;2.50;;
2338;SDS011;1180;51.438;6.978;2022-11-15T09:05:04;3.40;;;3.07;;
2338;SDS011;1180;51.438;6.978;2022-11-15T09:07:31;2.70;;;2.50;;
2338;SDS011;1180;51.438;6.978;2022-11-15T09:09:56;2.47;;;2.13;;
2338;SDS011;1180;51.438;6.978;2022-11-15T09:12:22;2.30;;;1.77;;
2338;SDS011;1180;51.438;6.978;2022-11-15T09:14:48;2.67;;;2.47;;
2338;SDS011;1180;51.438;6.978;2022-11-15T09:17:13;2.40;;;1.90;;
2338;SDS011;1180;51.438;6.978;2022-11-15T09:19:39;2.20;;;2.00;;
2338;SDS011;1180;51.438;6.978;2022-11-15T09:22:07;7.60;;;2.10;;
2338;SDS011;1180;51.438;6.978;2022-11-15T09:24:33;2.53;;;2.13;;
2338;SDS011;1180;51.438;6.978;2022-11-15T09:26:59;2.07;;;1.87;;
2338;SDS011;1180;51.438;6.978;2022-11-15T09:29:24;2.60;;;2.40;;
2338;SDS011;1180;51.438;6.978;2022-11-15T09:31:51;5.40;;;2.20;;
2338;SDS011;1180;51.438;6.978;2022-11-15T09:34:17;2.80;;;1.97;;
2338;SDS011;1180;51.438;6.978;2022-11-15T09:36:42;2.40;;;2.20;;
2338;SDS011;1180;51.438;6.978;2022-11-15T09:39:08;2.30;;;1.93;;
2338;SDS011;1180;51.438;6.978;2022-11-15T09:49:51;2.17;;;1.97;;
2338;SDS011;1180;51.438;6.978;2022-11-15T09:52:19;1.90;;;1.80;;
2338;SDS011;1180;51.438;6.978;2022-11-15T09:54:47;3.50;;;1.90;;
2338;SDS011;1180;51.438;6.978;2022-11-15T09:57:30;2.80;;;1.60;;
2338;SDS011;1180;51.438;6.978;2022-11-15T10:00:15;2.20;;;2.00;;
2338;SDS011;1180;51.438;6.978;2022-11-15T10:05:47;1.83;;;1.43;;
2338;SDS011;1180;51.438;6.978;2022-11-15T10:11:15;2.27;;;1.93;;
2338;SDS011;1180;51.438;6.978;2022-11-15T10:13:44;4.20;;;1.73;;
2338;SDS011;1180;51.438;6.978;2022-11-15T10:21:43;1.50;;;1.40;;
2338;SDS011;1180;51.438;6.978;2022-11-15T10:24:27;1.17;;;1.07;;
2338;SDS011;1180;51.438;6.978;2022-11-15T10:26:54;1.70;;;1.60;;
2338;SDS011;1180;51.438;6.978;2022-11-15T10:29:21;1.70;;;1.60;;
2338;SDS011;1180;51.438;6.978;2022-11-15T10:31:48;2.60;;;2.20;;
2338;SDS011;1180;51.438;6.978;2022-11-15T10:34:17;3.20;;;2.10;;
2338;SDS011;1180;51.438;6.978;2022-11-15T10:36:45;2.17;;;1.60;;
2338;SDS011;1180;51.438;6.978;2022-11-15T10:39:21;4.87;;;2.57;;
2338;SDS011;1180;51.438;6.978;2022-11-15T10:41:47;2.67;;;2.20;;
2338;SDS011;1180;51.438;6.978;2022-11-15T10:44:18;2.17;;;1.73;;
2338;SDS011;1180;51.438;6.978;2022-11-15T10:49:20;2.60;;;1.80;;
2338;SDS011;1180;51.438;6.978;2022-11-15T10:51:48;4.43;;;1.73;;
2338;SDS011;1180;51.438;6.978;2022-11-15T10:54:23;1.97;;;1.63;;
2338;SDS011;1180;51.438;6.978;2022-11-15T10:56:54;5.37;;;1.50;;
2338;SDS011;1180;51.438;6.978;2022-11-15T10:59:29;1.63;;;1.43;;
2338;SDS011;1180;51.438;6.978;2022-11-15T11:01:57;1.63;;;1.43;;
2338;SDS011;1180;51.438;6.978;2022-11-15T11:04:22;4.20;;;1.00;;
2338;SDS011;1180;51.438;6.978;2022-11-15T11:06:58;1.47;;;1.37;;
2338;SDS011;1180;51.438;6.978;2022-11-15T11:09:32;2.90;;;1.90;;
2338;SDS011;1180;51.438;6.978;2022-11-15T11:11:58;3.60;;;1.90;;
2338;SDS011;1180;51.438;6.978;2022-11-15T11:14:31;1.70;;;1.40;;
2338;SDS011;1180;51.438;6.978;2022-11-15T11:28:36;1.70;;;1.47;;
2338;SDS011;1180;51.438;6.978;2022-11-15T11:34:29;2.70;;;2.10;;
2338;SDS011;1180;51.438;6.978;2022-11-15T11:45:31;1.43;;;1.33;;
2338;SDS011;1180;51.438;6.978;2022-11-15T11:50:27;2.70;;;1.63;;
2338;SDS011;1180;51.438;6.978;2022-11-15T11:52:57;2.53;;;1.20;;
2338;SDS011;1180;51.438;6.978;2022-11-15T11:58:40;2.30;;;1.50;;
2338;SDS011;1180;51.438;6.978;2022-11-15T12:01:19;2.40;;;1.30;;
2338;SDS011;1180;51.438;6.978;2022-11-15T12:12:05;2.87;;;1.10;;
2338;SDS011;1180;51.438;6.978;2022-11-15T12:14:39;3.63;;;1.13;;
2338;SDS011;1180;51.438;6.978;2022-11-15T12:17:12;4.00;;;1.23;;
2338;SDS011;1180;51.438;6.978;2022-11-15T12:19:39;2.00;;;0.90;;
2338;SDS011;1180;51.438;6.978;2022-11-15T12:22:21;2.10;;;1.33;;
2338;SDS011;1180;51.438;6.978;2022-11-15T12:27:33;4.50;;;3.03;;
2338;SDS011;1180;51.438;6.978;2022-11-15T12:30:11;4.00;;;2.43;;
2338;SDS011;1180;51.438;6.978;2022-11-15T12:32:39;4.30;;;3.00;;
2338;SDS011;1180;51.438;6.978;2022-11-15T12:35:23;5.13;;;2.80;;
2338;SDS011;1180;51.438;6.978;2022-11-15T12:37:53;3.97;;;2.97;;
2338;SDS011;1180;51.438;6.978;2022-11-15T12:40:30;2.30;;;1.30;;
2338;SDS011;1180;51.438;6.978;2022-11-15T12:45:27;1.67;;;1.57;;
2338;SDS011;1180;51.438;6.978;2022-11-15T12:47:52;2.70;;;1.23;;
2338;SDS011;1180;51.438;6.978;2022-11-15T12:50:45;2.53;;;1.10;;
2338;SDS011;1180;51.438;6.978;2022-11-15T12:58:44;2.57;;;1.40;;
2338;SDS011;1180;51.438;6.978;2022-11-15T13:01:51;1.83;;;1.50;;
2338;SDS011;1180;51.438;6.978;2022-11-15T13:07:01;1.73;;;1.27;;
2338;SDS011;1180;51.438;6.978;2022-11-15T13:11:59;2.10;;;1.20;;
2338;SDS011;1180;51.438;6.978;2022-11-15T13:17:24;4.23;;;1.23;;
2338;SDS011;1180;51.438;6.978;2022-11-15T13:22:24;5.17;;;1.13;;
2338;SDS011;1180;51.438;6.978;2022-11-15T13:25:19;1.50;;;1.00;;
2338;SDS011;1180;51.438;6.978;2022-11-15T13:27:47;3.80;;;1.23;;
2338;SDS011;1180;51.438;6.978;2022-11-15T13:30:16;4.67;;;1.30;;
2338;SDS011;1180;51.438;6.978;2022-11-15T13:32:47;4.53;;;1.90;;
2338;SDS011;1180;51.438;6.978;2022-11-15T13:35:23;3.73;;;1.83;;
2338;SDS011;1180;51.438;6.978;2022-11-15T13:37:52;3.00;;;1.33;;
2338;SDS011;1180;51.438;6.978;2022-11-15T13:42:46;2.20;;;1.00;;
2338;SDS011;1180;51.438;6.978;2022-11-15T13:45:13;2.33;;;1.10;;
2338;SDS011;1180;51.438;6.978;2022-11-15T13:47:41;1.90;;;0.80;;
2338;SDS011;1180;51.438;6.978;2022-11-15T13:50:10;3.23;;;1.27;;
2338;SDS011;1180;51.438;6.978;2022-11-15T13:52:37;2.63;;;1.13;;
2338;SDS011;1180;51.438;6.978;2022-11-15T13:55:12;4.03;;;1.20;;
2338;SDS011;1180;51.438;6.978;2022-11-15T13:57:53;3.07;;;1.10;;
2338;SDS011;1180;51.438;6.978;2022-11-15T14:02:51;1.57;;;0.90;;
2338;SDS011;1180;51.438;6.978;2022-11-15T14:05:18;4.57;;;1.30;;
2338;SDS011;1180;51.438;6.978;2022-11-15T14:10:43;1.60;;;0.70;;
2338;SDS011;1180;51.438;6.978;2022-11-15T14:13:26;3.43;;;1.60;;
2338;SDS011;1180;51.438;6.978;2022-11-15T14:15:53;1.43;;;0.90;;
2338;SDS011;1180;51.438;6.978;2022-11-15T14:21:08;1.47;;;1.00;;
2338;SDS011;1180;51.438;6.978;2022-11-15T14:23:34;3.80;;;1.10;;
2338;SDS011;1180;51.438;6.978;2022-11-15T14:25:59;1.20;;;0.93;;
2338;SDS011;1180;51.438;6.978;2022-11-15T14:30:51;2.40;;;1.57;;
2338;SDS011;1180;51.438;6.978;2022-11-15T14:33:31;3.10;;;1.40;;
2338;SDS011;1180;51.438;6.978;2022-11-15T14:36:02;2.40;;;1.27;;
2338;SDS011;1180;51.438;6.978;2022-11-15T14:38:38;2.70;;;1.30;;
2338;SDS011;1180;51.438;6.978;2022-11-15T14:41:04;4.90;;;2.07;;
2338;SDS011;1180;51.438;6.978;2022-11-15T14:43:31;2.70;;;1.60;;
2338;SDS011;1180;51.438;6.978;2022-11-15T14:45:56;2.03;;;1.50;;
2338;SDS011;1180;51.438;6.978;2022-11-15T14:48:21;1.27;;;1.00;;
2338;SDS011;1180;51.438;6.978;2022-11-15T14:50:47;5.77;;;1.70;;
2338;SDS011;1180;51.438;6.978;2022-11-15T14:53:16;1.60;;;1.40;;
2338;SDS011;1180;51.438;6.978;2022-11-15T14:55:42;3.13;;;1.27;;
2338;SDS011;1180;51.438;6.978;2022-11-15T14:58:08;4.70;;;2.10;;
2338;SDS011;1180;51.438;6.978;2022-11-15T15:00:35;4.70;;;1.70;;
2338;SDS011;1180;51.438;6.978;2022-11-15T15:03:02;2.10;;;1.20;;
2338;SDS011;1180;51.438;6.978;2022-11-15T15:05:32;3.30;;;1.30;;
2338;SDS011;1180;51.438;6.978;2022-11-15T15:08:09;2.20;;;1.30;;
2338;SDS011;1180;51.438;6.978;2022-11-15T15:10:39;5.00;;;1.60;;
2338;SDS011;1180;51.438;6.978;2022-11-15T15:13:14;2.07;;;1.97;;
2338;SDS011;1180;51.438;6.978;2022-11-15T15:15:40;2.03;;;1.47;;
2338;SDS011;1180;51.438;6.978;2022-11-15T15:18:05;4.37;;;2.00;;
2338;SDS011;1180;51.438;6.978;2022-11-15T15:20:33;3.30;;;2.20;;
2338;SDS011;1180;51.438;6.978;2022-11-15T15:23:00;3.40;;;2.33;;
2338;SDS011;1180;51.438;6.978;2022-11-15T15:25:32;2.00;;;1.70;;
2338;SDS011;1180;51.438;6.978;2022-11-15T15:28:00;2.17;;;1.97;;
2338;SDS011;1180;51.438;6.978;2022-11-15T15:30:26;4.27;;;1.77;;
2338;SDS011;1180;51.438;6.978;2022-11-15T15:32:53;2.70;;;1.40;;
2338;SDS011;1180;51.438;6.978;2022-11-15T15:35:19;1.60;;;1.27;;
2338;SDS011;1180;51.438;6.978;2022-11-15T15:37:46;3.40;;;2.50;;
2338;SDS011;1180;51.438;6.978;2022-11-15T15:40:16;3.00;;;2.10;;
2338;SDS011;1180;51.438;6.978;2022-11-15T15:42:45;2.37;;;1.97;;
2338;SDS011;1180;51.438;6.978;2022-11-15T15:45:11;2.80;;;1.70;;
2338;SDS011;1180;51.438;6.978;2022-11-15T15:47:37;2.97;;;1.93;;
2338;SDS011;1180;51.438;6.978;2022-11-15T15:50:03;2.67;;;1.93;;
2338;SDS011;1180;51.438;6.978;2022-11-15T15:52:36;2.37;;;2.13;;
2338;SDS011;1180;51.438;6.978;2022-11-15T15:55:02;1.77;;;1.67;;
2338;SDS011;1180;51.438;6.978;2022-11-15T15:57:27;3.40;;;2.40;;
2338;SDS011;1180;51.438;6.978;2022-11-15T15:59:53;4.80;;;1.80;;
2338;SDS011;1180;51.438;6.978;2022-11-15T16:02:18;2.23;;;1.87;;
2338;SDS011;1180;51.438;6.978;2022-11-15T16:04:45;2.10;;;1.90;;
2338;SDS011;1180;51.438;6.978;2022-11-15T16:07:16;3.30;;;1.80;;
2338;SDS011;1180;51.438;6.978;2022-11-15T16:09:46;2.37;;;2.17;;
2338;SDS011;1180;51.438;6.978;2022-11-15T16:12:29;1.73;;;1.53;;
2338;SDS011;1180;51.438;6.978;2022-11-15T16:14:56;3.50;;;2.10;;
2338;SDS011;1180;51.438;6.978;2022-11-15T16:17:23;2.23;;;2.00;;
2338;SDS011;1180;51.438;6.978;2022-11-15T16:19:51;3.73;;;1.53;;
2338;SDS011;1180;51.438;6.978;2022-11-15T16:22:16;3.83;;;2.07;;
2338;SDS011;1180;51.438;6.978;2022-11-15T16:24:41;2.50;;;1.70;;
2338;SDS011;1180;51.438;6.978;2022-11-15T16:27:14;4.43;;;1.83;;
2338;SDS011;1180;51.438;6.978;2022-11-15T16:29:44;2.93;;;1.63;;
2338;SDS011;1180;51.438;6.978;2022-11-15T16:32:10;1.87;;;1.70;;
2338;SDS011;1180;51.438;6.978;2022-11-15T16:34:36;2.33;;;1.97;;
2338;SDS011;1180;51.438;6.978;2022-11-15T16:37:02;3.90;;;1.97;;
2338;SDS011;1180;51.438;6.978;2022-11-15T16:39:27;2.57;;;1.60;;
2338;SDS011;1180;51.438;6.978;2022-11-15T16:41:55;2.90;;;2.10;;
2338;SDS011;1180;51.438;6.978;2022-11-15T16:44:25;2.73;;;1.40;;
2338;SDS011;1180;51.438;6.978;2022-11-15T16:46:50;2.23;;;1.97;;
2338;SDS011;1180;51.438;6.978;2022-11-15T16:49:18;1.93;;;1.40;;
2338;SDS011;1180;51.438;6.978;2022-11-15T16:51:45;1.83;;;1.70;;
2338;SDS011;1180;51.438;6.978;2022-11-15T16:54:11;4.63;;;1.47;;
2338;SDS011;1180;51.438;6.978;2022-11-15T16:56:37;2.47;;;2.07;;
2338;SDS011;1180;51.438;6.978;2022-11-15T16:59:04;1.80;;;1.30;;
2338;SDS011;1180;51.438;6.978;2022-11-15T17:01:33;1.97;;;1.73;;
2338;SDS011;1180;51.438;6.978;2022-11-15T17:04:01;1.73;;;1.60;;
2338;SDS011;1180;51.438;6.978;2022-11-15T17:06:36;1.90;;;1.60;;
2338;SDS011;1180;51.438;6.978;2022-11-15T17:09:03;2.30;;;1.93;;
2338;SDS011;1180;51.438;6.978;2022-11-15T17:11:28;3.17;;;1.93;;
2338;SDS011;1180;51.438;6.978;2022-11-15T17:13:56;2.13;;;1.83;;
2338;SDS011;1180;51.438;6.978;2022-11-15T17:16:22;1.60;;;1.50;;
2338;SDS011;1180;51.438;6.978;2022-11-15T17:18:49;2.23;;;1.53;;
2338;SDS011;1180;51.438;6.978;2022-11-15T17:21:16;2.40;;;1.67;;
2338;SDS011;1180;51.438;6.978;2022-11-15T17:23:43;2.00;;;1.60;;
2338;SDS011;1180;51.438;6.978;2022-11-15T17:26:09;2.47;;;1.63;;
2338;SDS011;1180;51.438;6.978;2022-11-15T17:28:36;1.80;;;1.50;;